Time;durP1;ratioP1;P1;durP2;ratioP2;P2;SDS_P1;SDS_P2;PMS_P1;PMS_P2;Temp;Humidity;BMP_temperature;BMP_pressure;BME280_temperature;BME280_humidity;BME280_pressure;Samples;Min_cycle;Max_cycle;Signal;HPM_P1;HPM_P2
2020/12/29 00:03:42;;;;;;;2.80;2.53;;;5.30;99.90;;;;;;10415040;28;20300;-83
2020/12/29 00:08:45;;;;;;;1.90;1.80;;;5.30;99.90;;;;;;10397750;28;20661;-84
2020/12/29 00:13:50;;;;;;;1.60;1.50;;;5.20;99.90;;;;;;10415352;28;20210;-84
2020/12/29 00:18:53;;;;;;;1.40;1.30;;;5.20;99.90;;;;;;10413329;28;20233;-83
2020/12/29 00:23:54;;;;;;;1.47;1.37;;;5.10;99.90;;;;;;10421990;28;20228;-81
2020/12/29 00:28:57;;;;;;;1.10;1.00;;;5.00;99.90;;;;;;10438475;28;20258;-85
2020/12/29 00:33:59;;;;;;;1.03;1.03;;;5.00;99.90;;;;;;10415673;28;20709;-82
2020/12/29 00:39:00;;;;;;;1.13;1.03;;;5.10;99.90;;;;;;10395344;28;20226;-82
2020/12/29 00:44:03;;;;;;;0.90;0.90;;;5.00;99.90;;;;;;10412330;28;20233;-84
2020/12/29 00:49:04;;;;;;;1.00;1.00;;;5.10;99.90;;;;;;10412577;28;20198;-84
2020/12/29 00:54:06;;;;;;;1.20;1.10;;;5.10;99.90;;;;;;10411566;28;20218;-84
2020/12/29 00:59:16;;;;;;;0.80;0.80;;;5.20;99.90;;;;;;10395681;28;20245;-82
2020/12/29 01:04:18;;;;;;;1.03;0.90;;;5.30;99.90;;;;;;10397522;28;20231;-85
2020/12/29 01:09:20;;;;;;;1.00;1.00;;;5.30;99.90;;;;;;10399932;28;20202;-83
2020/12/29 01:14:23;;;;;;;3.47;1.00;;;5.30;99.90;;;;;;10400996;28;20269;-84
2020/12/29 01:19:34;;;;;;;1.37;1.37;;;5.20;99.90;;;;;;10405431;28;20225;-83
2020/12/29 01:24:35;;;;;;;1.50;1.50;;;5.20;99.90;;;;;;10421561;28;20210;-85
2020/12/29 01:29:38;;;;;;;1.40;1.40;;;5.10;99.90;;;;;;10411888;28;20744;-84
2020/12/29 01:34:40;;;;;;;1.40;1.40;;;5.10;99.90;;;;;;10448820;28;20204;-84
2020/12/29 01:39:41;;;;;;;1.53;1.50;;;5.10;99.90;;;;;;10448073;28;20236;-84
2020/12/29 01:44:44;;;;;;;1.50;1.50;;;5.00;99.90;;;;;;10448171;28;20268;-83
2020/12/29 01:49:46;;;;;;;1.63;1.53;;;5.00;99.90;;;;;;10447720;28;20217;-84
2020/12/29 01:54:48;;;;;;;1.90;1.90;;;5.00;99.90;;;;;;10447742;28;20201;-84
2020/12/29 01:59:50;;;;;;;2.50;2.20;;;5.00;99.90;;;;;;10435517;28;20241;-85
2020/12/29 02:04:53;;;;;;;2.13;2.03;;;5.00;99.90;;;;;;10402310;28;20211;-85
2020/12/29 02:09:55;;;;;;;2.37;2.27;;;5.00;99.90;;;;;;10423666;28;20273;-84
2020/12/29 02:14:58;;;;;;;2.23;2.13;;;5.00;99.90;;;;;;10420982;28;20202;-85
2020/12/29 02:20:00;;;;;;;2.23;2.13;;;4.90;99.90;;;;;;10405648;28;20218;-84
2020/12/29 02:25:04;;;;;;;2.40;2.30;;;5.00;99.90;;;;;;10403407;28;20190;-83
2020/12/29 02:30:06;;;;;;;2.60;2.50;;;5.00;99.90;;;;;;10402912;28;20260;-85
2020/12/29 02:35:10;;;;;;;2.10;2.00;;;5.00;99.90;;;;;;10417001;28;20214;-82
2020/12/29 02:40:13;;;;;;;2.20;2.10;;;5.10;99.90;;;;;;10420686;28;20575;-83
2020/12/29 02:45:16;;;;;;;1.97;1.90;;;5.10;99.90;;;;;;10423740;28;20216;-81
2020/12/29 02:50:18;;;;;;;2.60;1.70;;;5.20;99.90;;;;;;10409151;28;20217;-83
2020/12/29 02:55:21;;;;;;;1.87;1.77;;;5.20;99.90;;;;;;10408520;28;20232;-83
2020/12/29 03:00:26;;;;;;;1.83;1.77;;;5.30;99.90;;;;;;10408743;28;20225;-83
2020/12/29 03:05:28;;;;;;;2.10;2.00;;;5.20;99.90;;;;;;10410607;28;20190;-84
2020/12/29 03:10:30;;;;;;;2.10;2.00;;;5.20;99.90;;;;;;10411370;28;20605;-85
2020/12/29 03:15:32;;;;;;;1.90;1.90;;;5.10;99.90;;;;;;10427855;28;20240;-85
2020/12/29 03:20:33;;;;;;;2.07;2.07;;;5.10;99.90;;;;;;10412566;28;20305;-84
2020/12/29 03:25:36;;;;;;;2.20;2.20;;;5.10;99.90;;;;;;10410347;28;20229;-84
2020/12/29 03:30:38;;;;;;;2.33;2.23;;;5.20;99.90;;;;;;10411285;28;20608;-84
2020/12/29 03:35:39;;;;;;;2.00;2.00;;;5.20;99.90;;;;;;10415908;28;20664;-82
2020/12/29 03:40:42;;;;;;;2.00;2.00;;;5.10;99.90;;;;;;10428273;28;20218;-82
2020/12/29 03:45:46;;;;;;;2.30;2.20;;;5.10;99.90;;;;;;10411984;28;20217;-81
2020/12/29 03:50:48;;;;;;;2.23;2.23;;;5.00;99.90;;;;;;10409039;28;20225;-81
2020/12/29 03:55:51;;;;;;;2.20;2.10;;;5.00;99.90;;;;;;10408475;28;20237;-83
2020/12/29 04:00:52;;;;;;;2.40;2.40;;;5.00;99.90;;;;;;10407716;28;20253;-83
2020/12/29 04:05:54;;;;;;;2.70;2.60;;;4.90;99.90;;;;;;10406204;28;20340;-81
2020/12/29 04:10:56;;;;;;;1.07;1.07;;;4.90;99.90;;;;;;10406191;28;20268;-83
2020/12/29 04:15:58;;;;;;;3.07;2.97;;;4.90;99.90;;;;;;10407452;28;20257;-85
2020/12/29 04:21:00;;;;;;;2.80;2.70;;;4.80;99.90;;;;;;10424091;28;20206;-83
2020/12/29 04:26:03;;;;;;;3.27;2.90;;;4.80;99.90;;;;;;10408488;28;20225;-85
2020/12/29 04:31:04;;;;;;;2.67;2.57;;;4.80;99.90;;;;;;10405517;28;20316;-83
2020/12/29 04:36:07;;;;;;;3.00;2.80;;;4.90;99.90;;;;;;10405104;28;20300;-84
2020/12/29 04:41:09;;;;;;;2.47;2.37;;;4.90;99.90;;;;;;10426370;28;20277;-83
2020/12/29 04:46:11;;;;;;;2.60;2.50;;;4.90;99.90;;;;;;10420508;28;20194;-82
2020/12/29 04:51:16;;;;;;;2.87;2.77;;;4.90;99.90;;;;;;10426298;28;20214;-81
2020/12/29 04:56:24;;;;;;;2.90;2.80;;;4.80;99.90;;;;;;10406331;28;20712;-84
2020/12/29 05:01:30;;;;;;;1.83;1.73;;;4.80;99.90;;;;;;10417227;28;20230;-82
2020/12/29 05:06:32;;;;;;;3.00;2.90;;;4.70;99.90;;;;;;10418246;28;20190;-84
2020/12/29 05:11:36;;;;;;;2.63;2.53;;;4.70;99.90;;;;;;10400406;28;20309;-84
2020/12/29 05:16:38;;;;;;;1.90;1.80;;;4.60;99.90;;;;;;10398323;28;20308;-84
2020/12/29 05:21:42;;;;;;;3.97;3.83;;;4.50;99.90;;;;;;10414791;28;20213;-84
2020/12/29 05:26:48;;;;;;;3.90;3.70;;;4.50;99.90;;;;;;10398953;28;20217;-83
2020/12/29 05:31:50;;;;;;;3.90;3.60;;;4.50;99.90;;;;;;10416130;28;20241;-83
2020/12/29 05:36:53;;;;;;;3.00;2.80;;;4.50;99.90;;;;;;10416229;28;20225;-84
2020/12/29 05:41:57;;;;;;;3.43;3.30;;;4.50;99.90;;;;;;10413990;28;20222;-83
2020/12/29 05:47:00;;;;;;;3.33;3.13;;;4.50;99.90;;;;;;10426667;28;20732;-82
2020/12/29 05:52:03;;;;;;;3.13;2.93;;;4.60;99.90;;;;;;10416262;28;20584;-83
2020/12/29 05:57:06;;;;;;;3.10;2.90;;;4.70;99.90;;;;;;10415023;28;20678;-82
2020/12/29 06:02:09;;;;;;;2.80;2.70;;;4.70;99.90;;;;;;10398248;28;20910;-83
2020/12/29 06:07:12;;;;;;;2.50;2.40;;;4.60;99.90;;;;;;10414905;28;20194;-82
2020/12/29 06:12:32;;;;;;;2.80;2.70;;;4.60;99.90;;;;;;10401094;28;20225;-81
2020/12/29 06:17:38;;;;;;;2.90;2.70;;;4.60;99.90;;;;;;10412192;28;20270;-81
2020/12/29 06:22:41;;;;;;;1.50;1.40;;;4.60;99.90;;;;;;10434082;28;20248;-79
2020/12/29 06:27:50;;;;;;;2.40;2.30;;;4.60;99.90;;;;;;10435726;28;20178;-81
2020/12/29 06:32:54;;;;;;;2.70;2.60;;;4.60;99.90;;;;;;10417134;28;20241;-81
2020/12/29 06:38:03;;;;;;;2.40;2.30;;;4.60;99.90;;;;;;10417084;28;20233;-80
2020/12/29 06:43:08;;;;;;;1.27;1.17;;;4.60;99.90;;;;;;10417689;28;20304;-81
2020/12/29 06:48:17;;;;;;;2.73;2.63;;;4.60;99.90;;;;;;10437122;28;20194;-81
2020/12/29 06:53:19;;;;;;;1.80;1.70;;;4.60;99.90;;;;;;10433893;28;20213;-82
2020/12/29 06:58:32;;;;;;;3.37;3.07;;;4.70;99.90;;;;;;10417091;28;20241;-82
2020/12/29 07:03:34;;;;;;;2.57;2.47;;;4.70;99.90;;;;;;10415537;28;20671;-80
2020/12/29 07:08:36;;;;;;;2.20;2.10;;;4.70;99.90;;;;;;10432651;28;20729;-82
2020/12/29 07:13:40;;;;;;;2.50;2.40;;;4.70;99.90;;;;;;10427822;28;20221;-82
2020/12/29 07:18:44;;;;;;;1.97;1.90;;;4.80;99.90;;;;;;10425024;28;20708;-82
2020/12/29 07:23:50;;;;;;;1.33;1.30;;;4.80;99.90;;;;;;10425731;28;20225;-83
2020/12/29 07:28:55;;;;;;;2.60;2.40;;;4.90;99.90;;;;;;10408141;28;20198;-82
2020/12/29 07:34:02;;;;;;;2.20;2.00;;;4.90;99.90;;;;;;10415994;28;20226;-80
2020/12/29 07:39:04;;;;;;;2.43;2.23;;;5.00;99.90;;;;;;10429271;28;20213;-81
2020/12/29 07:44:07;;;;;;;2.20;2.10;;;5.10;99.90;;;;;;10425580;28;20217;-83
2020/12/29 07:49:08;;;;;;;2.93;2.60;;;5.20;99.90;;;;;;10427612;28;20288;-81
2020/12/29 07:54:10;;;;;;;2.30;2.20;;;5.20;99.90;;;;;;10428651;28;20355;-84
2020/12/29 07:59:12;;;;;;;2.20;2.10;;;5.30;99.90;;;;;;10412215;28;20217;-84
2020/12/29 08:04:26;;;;;;;2.23;2.13;;;5.30;99.90;;;;;;10389219;28;20201;-83
2020/12/29 08:09:28;;;;;;;2.00;1.80;;;5.40;99.90;;;;;;10432472;28;20194;-84
2020/12/29 08:14:30;;;;;;;1.70;1.60;;;5.40;99.90;;;;;;10428362;28;20593;-83
2020/12/29 08:19:32;;;;;;;1.60;1.50;;;5.50;99.90;;;;;;10432366;28;20529;-83
2020/12/29 08:24:34;;;;;;;1.93;1.80;;;5.60;99.90;;;;;;10415529;28;20218;-82
2020/12/29 08:29:37;;;;;;;6.03;1.90;;;5.60;99.90;;;;;;10400412;28;20202;-83
2020/12/29 08:34:40;;;;;;;1.80;1.70;;;5.70;99.90;;;;;;10401528;28;20202;-83
2020/12/29 08:39:50;;;;;;;1.80;1.70;;;5.80;99.90;;;;;;10395559;28;20225;-82
2020/12/29 08:44:56;;;;;;;2.70;2.60;;;5.80;99.90;;;;;;10382900;28;20222;-82
2020/12/29 08:49:58;;;;;;;2.50;2.40;;;5.80;99.90;;;;;;10402613;28;20213;-82
2020/12/29 08:55:00;;;;;;;2.80;2.70;;;5.60;99.90;;;;;;10385083;28;20689;-84
2020/12/29 09:00:03;;;;;;;3.70;3.20;;;5.50;99.90;;;;;;10406468;28;20229;-83
2020/12/29 09:05:04;;;;;;;3.33;3.03;;;5.40;99.90;;;;;;10391841;28;20205;-82
2020/12/29 09:10:07;;;;;;;3.37;3.13;;;5.40;99.90;;;;;;10409724;28;20272;-81
2020/12/29 09:15:10;;;;;;;2.90;2.80;;;5.50;99.90;;;;;;10397486;28;20229;-82
2020/12/29 09:20:14;;;;;;;3.33;3.13;;;5.50;99.90;;;;;;10412399;28;20221;-84
2020/12/29 09:25:28;;;;;;;2.80;2.70;;;5.40;99.90;;;;;;10385537;28;20194;-82
2020/12/29 09:30:30;;;;;;;2.90;2.80;;;5.40;99.90;;;;;;10392892;28;20253;-83
2020/12/29 09:35:32;;;;;;;2.80;2.70;;;5.40;99.90;;;;;;10405667;28;20195;-83
2020/12/29 09:40:34;;;;;;;2.07;1.97;;;5.40;99.90;;;;;;10399086;28;20217;-85
2020/12/29 09:45:37;;;;;;;4.53;4.33;;;5.40;99.90;;;;;;10414496;28;20208;-83
2020/12/29 09:50:38;;;;;;;2.90;2.80;;;5.40;99.90;;;;;;10398359;28;20222;-82
2020/12/29 09:55:41;;;;;;;3.10;3.00;;;5.50;99.90;;;;;;10397874;28;20313;-85
2020/12/29 10:00:43;;;;;;;3.33;3.03;;;5.50;99.90;;;;;;10403418;28;20300;-83
2020/12/29 10:05:45;;;;;;;2.77;2.67;;;5.60;99.90;;;;;;10398619;28;20654;-83
2020/12/29 10:10:46;;;;;;;3.17;2.93;;;5.60;99.90;;;;;;10393511;28;20222;-83
2020/12/29 10:15:49;;;;;;;3.03;2.83;;;5.70;99.90;;;;;;10399897;28;20211;-83
2020/12/29 10:20:51;;;;;;;2.33;2.23;;;5.80;99.90;;;;;;10392551;28;20229;-83
2020/12/29 10:25:53;;;;;;;1.87;1.77;;;5.80;99.90;;;;;;10407910;28;20225;-82
2020/12/29 10:30:55;;;;;;;2.70;2.60;;;6.00;99.90;;;;;;10388432;28;20258;-81
2020/12/29 10:35:57;;;;;;;2.23;2.10;;;6.00;99.90;;;;;;10414823;28;20367;-81
2020/12/29 10:40:58;;;;;;;2.13;2.13;;;6.10;99.90;;;;;;10413036;28;20593;-83
2020/12/29 10:46:01;;;;;;;2.47;2.37;;;6.10;99.90;;;;;;10418473;28;20247;-83
2020/12/29 10:51:03;;;;;;;2.80;2.70;;;6.10;99.90;;;;;;10413481;28;20710;-82
2020/12/29 10:56:04;;;;;;;2.73;2.63;;;6.20;99.90;;;;;;10415713;28;20662;-83
2020/12/29 11:01:07;;;;;;;3.00;2.90;;;6.30;99.90;;;;;;10416325;28;20268;-83
2020/12/29 11:06:12;;;;;;;3.80;1.87;;;6.40;99.90;;;;;;10406020;28;20260;-82
2020/12/29 11:11:15;;;;;;;2.60;2.50;;;6.40;99.90;;;;;;10414597;28;20210;-82
2020/12/29 11:16:19;;;;;;;2.20;2.10;;;6.40;99.90;;;;;;10408666;28;20238;-83
2020/12/29 11:21:21;;;;;;;2.50;2.40;;;6.40;99.90;;;;;;10428477;28;20222;-82
2020/12/29 11:26:23;;;;;;;1.43;1.43;;;6.50;99.90;;;;;;10421709;28;20214;-83
2020/12/29 11:31:25;;;;;;;1.87;1.77;;;6.60;99.90;;;;;;10421901;28;20221;-81
2020/12/29 11:36:27;;;;;;;1.60;1.60;;;6.70;99.90;;;;;;10429466;28;20217;-84
2020/12/29 11:41:28;;;;;;;1.77;1.67;;;6.70;99.90;;;;;;10420348;28;20224;-82
2020/12/29 11:46:32;;;;;;;2.20;2.10;;;6.70;99.90;;;;;;10416729;28;20197;-82
2020/12/29 11:51:34;;;;;;;2.13;1.93;;;6.60;99.90;;;;;;10418038;28;20230;-82
2020/12/29 11:56:36;;;;;;;1.70;1.60;;;6.70;99.90;;;;;;10416526;28;20233;-83
2020/12/29 12:01:38;;;;;;;1.60;1.50;;;6.60;99.90;;;;;;10414355;28;20595;-81
2020/12/29 12:06:40;;;;;;;1.50;1.43;;;6.50;99.90;;;;;;10418454;28;20215;-82
2020/12/29 12:11:42;;;;;;;1.30;1.30;;;6.50;99.90;;;;;;10395782;28;20223;-83
2020/12/29 12:16:44;;;;;;;1.90;1.80;;;6.60;99.90;;;;;;10389411;28;20678;-84
2020/12/29 12:21:46;;;;;;;3.10;2.90;;;6.60;99.90;;;;;;10415960;28;20226;-84
2020/12/29 12:26:48;;;;;;;1.40;1.27;;;6.60;99.90;;;;;;10400191;28;20620;-82
2020/12/29 12:31:50;;;;;;;1.60;1.60;;;6.60;99.90;;;;;;10417752;28;20232;-81
2020/12/29 12:36:52;;;;;;;2.20;2.10;;;6.60;99.90;;;;;;10415994;28;20241;-81
2020/12/29 12:41:54;;;;;;;1.87;1.77;;;6.60;99.90;;;;;;10412702;28;20231;-82
2020/12/29 12:46:56;;;;;;;1.70;1.60;;;6.50;99.90;;;;;;10403545;28;20281;-84
2020/12/29 12:51:58;;;;;;;2.20;2.10;;;6.50;99.90;;;;;;10415234;28;20233;-81
2020/12/29 12:57:00;;;;;;;2.03;1.93;;;6.50;99.90;;;;;;10416770;28;20225;-81
2020/12/29 13:02:02;;;;;;;1.97;1.87;;;6.50;99.90;;;;;;10408034;28;20227;-83
2020/12/29 13:07:04;;;;;;;1.93;1.83;;;6.60;99.90;;;;;;10396536;28;20226;-83
2020/12/29 13:12:06;;;;;;;1.80;1.70;;;6.60;99.90;;;;;;10417446;28;20575;-84
2020/12/29 13:17:08;;;;;;;1.70;1.60;;;6.50;99.90;;;;;;10385439;28;20205;-83
2020/12/29 13:22:10;;;;;;;2.20;2.07;;;6.50;99.90;;;;;;10411420;28;20336;-82
2020/12/29 13:27:11;;;;;;;1.47;1.40;;;6.50;99.90;;;;;;10415418;28;20193;-84
2020/12/29 13:32:14;;;;;;;2.70;2.50;;;6.70;99.90;;;;;;10410709;28;20446;-85
2020/12/29 13:37:17;;;;;;;5.47;4.93;;;6.80;99.90;;;;;;10420449;28;20210;-83
2020/12/29 13:42:20;;;;;;;5.20;4.00;;;6.80;99.90;;;;;;10419237;28;20309;-82
2020/12/29 13:47:25;;;;;;;1.73;1.50;;;6.80;99.90;;;;;;10392886;28;20200;-83
2020/12/29 13:52:27;;;;;;;2.03;1.93;;;6.90;99.90;;;;;;10390980;28;20245;-83
2020/12/29 13:57:29;;;;;;;1.50;1.40;;;7.00;99.90;;;;;;10412539;28;20253;-83
2020/12/29 14:02:31;;;;;;;1.73;1.27;;;7.10;99.90;;;;;;10391832;28;20217;-83
2020/12/29 14:07:33;;;;;;;1.70;1.53;;;7.30;99.90;;;;;;10409775;28;20198;-83
2020/12/29 14:12:34;;;;;;;1.80;1.70;;;7.20;99.90;;;;;;10416049;28;20225;-83
2020/12/29 14:17:40;;;;;;;2.83;2.37;;;7.30;99.90;;;;;;10418371;28;20220;-84
2020/12/29 14:22:44;;;;;;;5.73;3.83;;;7.30;99.90;;;;;;10412705;28;20241;-83
2020/12/29 14:27:46;;;;;;;2.20;1.93;;;7.30;99.90;;;;;;10400115;28;20746;-85
2020/12/29 14:32:49;;;;;;;2.90;2.13;;;7.40;99.90;;;;;;10399290;28;20240;-84
2020/12/29 14:37:51;;;;;;;1.93;1.80;;;7.40;99.90;;;;;;10413426;28;20701;-84
2020/12/29 14:42:55;;;;;;;1.90;1.80;;;7.40;99.90;;;;;;10421668;28;20230;-85
2020/12/29 14:47:58;;;;;;;2.00;1.87;;;7.40;99.90;;;;;;10417238;28;20194;-84
2020/12/29 14:53:00;;;;;;;1.90;1.60;;;7.40;99.90;;;;;;10440409;28;20312;-82
2020/12/29 14:58:02;;;;;;;2.13;1.93;;;7.30;99.90;;;;;;10455861;28;20642;-82
2020/12/29 15:03:05;;;;;;;1.97;1.80;;;7.30;99.90;;;;;;10453687;28;20225;-83
2020/12/29 15:08:07;;;;;;;2.03;1.83;;;7.30;99.90;;;;;;10457108;28;20219;-83
2020/12/29 15:13:08;;;;;;;2.60;2.40;;;7.30;99.90;;;;;;10437861;28;20225;-84
2020/12/29 15:18:15;;;;;;;2.80;2.50;;;7.30;99.90;;;;;;10416949;28;20745;-84
2020/12/29 15:23:16;;;;;;;5.23;2.83;;;7.30;99.90;;;;;;10425389;28;20229;-83
2020/12/29 15:28:18;;;;;;;3.70;3.17;;;7.20;99.90;;;;;;10365678;28;20195;-82
2020/12/29 15:33:21;;;;;;;2.80;2.00;;;7.10;99.90;;;;;;10403638;28;20234;-82
2020/12/29 15:38:23;;;;;;;2.50;2.30;;;7.10;99.90;;;;;;10427993;28;20221;-83
2020/12/29 15:43:24;;;;;;;2.87;2.57;;;7.00;99.90;;;;;;10456526;28;20221;-82
2020/12/29 15:48:27;;;;;;;2.90;2.70;;;7.00;99.90;;;;;;10434985;28;20193;-81
2020/12/29 15:53:29;;;;;;;2.90;2.70;;;7.00;99.90;;;;;;10424678;28;20313;-83
2020/12/29 15:58:30;;;;;;;4.93;4.40;;;7.00;99.90;;;;;;10400462;28;20229;-83
2020/12/29 16:03:33;;;;;;;5.30;4.87;;;7.00;99.90;;;;;;10399638;28;20297;-83
2020/12/29 16:08:34;;;;;;;2.80;2.57;;;6.80;99.90;;;;;;10396602;28;20709;-83
2020/12/29 16:13:37;;;;;;;5.20;4.80;;;6.70;99.90;;;;;;10383390;28;20236;-82
2020/12/29 16:18:39;;;;;;;3.93;3.57;;;6.50;99.90;;;;;;10397746;28;20245;-84
2020/12/29 16:23:41;;;;;;;7.27;6.67;;;6.40;99.90;;;;;;10426167;28;20218;-83
2020/12/29 16:28:42;;;;;;;5.23;4.63;;;6.20;99.90;;;;;;10417813;28;20561;-83
2020/12/29 16:33:45;;;;;;;3.30;2.93;;;6.00;99.90;;;;;;10415487;28;20279;-83
2020/12/29 16:38:47;;;;;;;4.23;3.40;;;5.90;99.90;;;;;;10420138;28;20296;-82
2020/12/29 16:43:48;;;;;;;5.30;4.80;;;5.90;99.90;;;;;;10415189;28;20226;-82
2020/12/29 16:48:51;;;;;;;5.83;5.33;;;5.80;99.90;;;;;;10396696;28;20197;-83
2020/12/29 16:53:52;;;;;;;6.97;5.20;;;5.80;99.90;;;;;;10384483;28;20698;-82
2020/12/29 16:58:57;;;;;;;13.57;11.30;;;5.70;99.90;;;;;;10414105;28;20217;-82
2020/12/29 17:04:00;;;;;;;7.73;6.93;;;5.70;99.90;;;;;;10410748;28;20217;-81
2020/12/29 17:09:01;;;;;;;7.53;6.80;;;5.60;99.90;;;;;;10411780;28;20202;-82
2020/12/29 17:14:06;;;;;;;5.73;5.23;;;5.40;99.90;;;;;;10395905;28;20625;-82
2020/12/29 17:19:08;;;;;;;3.70;3.40;;;5.30;99.90;;;;;;10397274;28;20660;-84
2020/12/29 17:24:10;;;;;;;4.67;4.27;;;5.30;99.90;;;;;;10413219;28;20236;-83
2020/12/29 17:29:12;;;;;;;4.17;3.10;;;5.30;99.90;;;;;;10410901;28;20506;-83
2020/12/29 17:34:16;;;;;;;5.50;4.47;;;5.30;99.90;;;;;;10387781;28;20241;-82
2020/12/29 17:39:18;;;;;;;3.27;2.97;;;5.40;99.90;;;;;;10429897;28;20678;-83
2020/12/29 17:44:19;;;;;;;4.73;4.20;;;5.40;99.90;;;;;;10419104;28;20288;-81
2020/12/29 17:49:22;;;;;;;7.73;6.73;;;5.40;99.90;;;;;;10396985;28;20209;-82
2020/12/29 17:54:23;;;;;;;7.47;6.77;;;5.50;99.90;;;;;;10395671;28;20208;-83
2020/12/29 17:59:25;;;;;;;8.37;7.67;;;5.50;99.90;;;;;;10410296;28;20305;-83
2020/12/29 18:04:28;;;;;;;4.40;4.00;;;5.50;99.90;;;;;;10408490;28;20220;-83
2020/12/29 18:09:30;;;;;;;3.80;3.47;;;5.50;99.90;;;;;;10413245;28;20658;-83
2020/12/29 18:14:31;;;;;;;5.53;5.03;;;5.30;99.90;;;;;;10395880;28;20259;-82
2020/12/29 18:19:34;;;;;;;5.10;4.10;;;5.20;99.90;;;;;;10390703;28;20218;-83
2020/12/29 18:24:36;;;;;;;3.60;2.90;;;5.10;99.90;;;;;;10392446;28;20252;-83
2020/12/29 18:29:38;;;;;;;3.90;3.60;;;5.00;99.90;;;;;;10405577;28;20271;-83
2020/12/29 18:34:40;;;;;;;3.50;3.03;;;5.00;99.90;;;;;;10412723;28;20303;-84
2020/12/29 18:39:42;;;;;;;5.30;4.80;;;5.00;99.90;;;;;;10397640;28;20226;-83
2020/12/29 18:44:44;;;;;;;11.17;9.40;;;5.00;99.90;;;;;;10400622;28;20197;-83
2020/12/29 18:49:47;;;;;;;7.03;6.17;;;5.00;99.90;;;;;;10397998;28;20215;-84
2020/12/29 18:54:49;;;;;;;5.60;5.10;;;5.00;99.90;;;;;;10396860;28;20198;-83
2020/12/29 18:59:50;;;;;;;4.43;4.03;;;5.00;99.90;;;;;;10408109;28;20757;-84
2020/12/29 19:04:55;;;;;;;5.47;5.07;;;5.00;99.90;;;;;;10381738;28;20232;-84
2020/12/29 19:09:56;;;;;;;3.60;3.23;;;5.00;99.90;;;;;;10400327;28;20214;-81
2020/12/29 19:14:58;;;;;;;3.63;3.20;;;5.00;99.90;;;;;;10415931;28;20284;-82
2020/12/29 19:20:01;;;;;;;2.87;2.53;;;5.00;99.90;;;;;;10412520;28;20222;-82
2020/12/29 19:25:03;;;;;;;3.20;2.57;;;5.10;99.90;;;;;;10399643;28;20206;-80
2020/12/29 19:30:05;;;;;;;3.40;3.10;;;5.10;99.90;;;;;;10391130;28;20236;-83
2020/12/29 19:35:07;;;;;;;6.97;5.63;;;5.10;99.90;;;;;;10397918;28;20195;-81
2020/12/29 19:40:09;;;;;;;4.57;3.73;;;5.20;99.90;;;;;;10384014;28;20606;-82
2020/12/29 19:45:15;;;;;;;7.90;5.13;;;5.20;99.90;;;;;;10398771;28;20294;-83
2020/12/29 19:50:19;;;;;;;5.27;4.37;;;5.30;99.90;;;;;;10408282;28;21038;-82
2020/12/29 19:55:21;;;;;;;4.37;3.20;;;5.30;99.90;;;;;;10386372;28;20201;-82
2020/12/29 20:00:23;;;;;;;6.17;4.80;;;5.40;99.90;;;;;;10393827;28;20236;-81
2020/12/29 20:05:25;;;;;;;5.30;4.80;;;5.50;99.90;;;;;;10380394;28;20697;-81
2020/12/29 20:10:27;;;;;;;3.87;3.47;;;5.60;99.90;;;;;;10413897;28;20237;-83
2020/12/29 20:15:29;;;;;;;4.17;3.83;;;5.70;99.90;;;;;;10414002;28;20218;-81
2020/12/29 20:20:32;;;;;;;3.67;3.37;;;5.80;99.90;;;;;;10394512;28;20276;-81
2020/12/29 20:25:34;;;;;;;3.70;3.33;;;5.90;99.90;;;;;;10413618;28;20206;-83
2020/12/29 20:30:36;;;;;;;3.17;2.93;;;6.00;99.90;;;;;;10400617;28;20225;-83
2020/12/29 20:35:38;;;;;;;3.27;2.90;;;6.00;99.90;;;;;;10405525;28;20198;-80
2020/12/29 20:40:40;;;;;;;3.40;3.10;;;6.10;99.90;;;;;;10429823;28;20228;-82
2020/12/29 20:45:42;;;;;;;4.47;3.63;;;6.10;99.90;;;;;;10453870;28;20220;-81
2020/12/29 20:50:47;;;;;;;3.83;3.13;;;6.10;99.90;;;;;;10436857;28;20645;-82
2020/12/29 20:55:48;;;;;;;6.20;3.40;;;6.10;99.90;;;;;;10435126;28;20204;-82
2020/12/29 21:00:50;;;;;;;3.57;3.27;;;6.00;99.90;;;;;;10417771;28;20232;-81
2020/12/29 21:05:53;;;;;;;3.67;3.37;;;6.00;99.90;;;;;;10393351;28;20724;-82
2020/12/29 21:10:54;;;;;;;3.73;3.43;;;6.00;99.90;;;;;;10411983;28;20218;-81
2020/12/29 21:15:56;;;;;;;4.30;3.20;;;5.90;99.90;;;;;;10416562;28;20197;-82
2020/12/29 21:20:58;;;;;;;3.53;3.20;;;5.90;99.90;;;;;;10413949;28;20232;-81
2020/12/29 21:26:00;;;;;;;4.13;3.33;;;5.90;99.90;;;;;;10415052;28;21021;-82
2020/12/29 21:31:02;;;;;;;3.43;3.13;;;5.90;99.90;;;;;;10413825;28;20222;-81
2020/12/29 21:36:04;;;;;;;5.20;3.53;;;5.90;99.90;;;;;;10415841;28;20577;-81
2020/12/29 21:41:07;;;;;;;3.30;3.00;;;6.00;99.90;;;;;;10398204;28;20233;-81
2020/12/29 21:46:12;;;;;;;3.50;3.20;;;5.90;99.90;;;;;;10437569;28;20263;-80
2020/12/29 21:51:16;;;;;;;3.20;3.00;;;5.90;99.90;;;;;;10439114;28;20221;-81
2020/12/29 21:56:19;;;;;;;3.00;2.70;;;5.90;99.90;;;;;;10409582;28;20204;-80
2020/12/29 22:01:21;;;;;;;3.47;3.17;;;6.00;99.90;;;;;;10412049;28;20256;-82
2020/12/29 22:06:24;;;;;;;3.30;3.03;;;6.00;99.90;;;;;;10415260;28;20208;-80
2020/12/29 22:11:31;;;;;;;3.30;3.10;;;6.00;99.90;;;;;;10416989;28;20244;-82
2020/12/29 22:16:33;;;;;;;2.67;2.47;;;6.10;99.90;;;;;;10379880;28;20198;-81
2020/12/29 22:21:35;;;;;;;3.70;3.40;;;6.10;99.90;;;;;;10395823;28;20271;-80
2020/12/29 22:26:37;;;;;;;3.10;2.90;;;6.10;99.90;;;;;;10374667;28;20203;-80
2020/12/29 22:31:39;;;;;;;4.30;2.80;;;6.20;99.90;;;;;;10441764;23;20232;-78
2020/12/29 22:36:42;;;;;;;2.57;2.30;;;6.20;99.90;;;;;;10511022;28;20207;-77
2020/12/29 22:41:43;;;;;;;2.70;2.50;;;6.30;99.90;;;;;;10511438;28;20624;-78
2020/12/29 22:46:45;;;;;;;3.10;2.90;;;6.20;99.90;;;;;;10510776;28;20551;-78
2020/12/29 22:51:48;;;;;;;2.70;2.50;;;6.20;99.90;;;;;;10527411;28;20587;-78
2020/12/29 22:56:49;;;;;;;2.37;2.20;;;6.10;99.90;;;;;;10526909;28;20222;-78
2020/12/29 23:01:51;;;;;;;3.20;2.90;;;6.00;99.90;;;;;;10516027;28;20250;-78
2020/12/29 23:07:00;;;;;;;5.37;3.23;;;5.80;99.90;;;;;;10534411;28;20283;-78
2020/12/29 23:12:01;;;;;;;3.17;2.97;;;5.60;99.90;;;;;;10536803;28;20649;-78
2020/12/29 23:17:03;;;;;;;3.40;3.20;;;5.50;99.90;;;;;;10516921;28;20297;-78
2020/12/29 23:22:06;;;;;;;3.43;3.13;;;5.30;99.90;;;;;;10525357;28;20599;-78
2020/12/29 23:27:07;;;;;;;3.37;3.07;;;5.20;99.90;;;;;;10522554;28;20208;-77
2020/12/29 23:32:09;;;;;;;3.00;2.80;;;5.10;99.90;;;;;;10530981;28;20314;-78
2020/12/29 23:37:12;;;;;;;3.00;2.80;;;5.00;99.90;;;;;;10500439;28;20247;-78
2020/12/29 23:42:13;;;;;;;3.37;3.07;;;4.90;99.90;;;;;;10533229;28;20234;-77
2020/12/29 23:47:15;;;;;;;2.83;2.63;;;4.90;99.90;;;;;;10535266;28;20240;-78
2020/12/29 23:52:17;;;;;;;3.37;3.10;;;4.90;99.90;;;;;;10533880;28;20212;-78
2020/12/29 23:57:19;;;;;;;2.23;2.13;;;5.00;99.90;;;;;;10536547;28;20223;-78
